createdAt,value
2019-01-28T00:01:59.118Z,2.42
2019-01-28T00:04:28.631Z,2.38
2019-01-28T00:06:58.030Z,2.36
2019-01-28T00:09:27.503Z,2.31
2019-01-28T00:11:56.919Z,2.30
2019-01-28T00:14:26.331Z,2.31
2019-01-28T00:16:56.111Z,2.29
2019-01-28T00:19:25.665Z,2.23
2019-01-28T00:21:55.066Z,2.24
2019-01-28T00:24:24.467Z,2.28
2019-01-28T00:26:54.158Z,2.34
2019-01-28T00:29:23.621Z,2.39
2019-01-28T00:31:53.016Z,2.41
2019-01-28T00:34:22.469Z,2.49
2019-01-28T00:36:51.964Z,2.53
2019-01-28T00:39:21.455Z,2.55
2019-01-28T00:41:50.897Z,2.57
2019-01-28T00:44:20.287Z,2.58
2019-01-28T00:46:49.753Z,2.57
2019-01-28T00:49:19.202Z,2.58
2019-01-28T00:51:48.684Z,2.67
2019-01-28T00:54:18.154Z,2.69
2019-01-28T00:56:47.784Z,2.71
2019-01-28T00:59:17.189Z,2.77
2019-01-28T01:01:46.788Z,2.83
2019-01-28T01:04:16.396Z,2.82
2019-01-28T01:06:45.786Z,2.84
2019-01-28T01:09:15.179Z,2.86
2019-01-28T01:11:44.722Z,2.89
2019-01-28T01:14:14.204Z,2.90
2019-01-28T01:16:43.604Z,2.88
2019-01-28T01:19:13.060Z,2.83
2019-01-28T01:21:42.564Z,2.81
2019-01-28T01:24:12.051Z,2.76
2019-01-28T01:26:41.624Z,2.74
2019-01-28T01:29:11.099Z,2.72
2019-01-28T01:31:40.472Z,2.71
2019-01-28T01:34:09.924Z,2.75
2019-01-28T01:36:39.407Z,2.79
2019-01-28T01:39:09.313Z,2.80
2019-01-28T01:41:38.890Z,2.77
2019-01-28T01:44:08.285Z,2.77
2019-01-28T01:46:37.783Z,2.75
2019-01-28T01:49:07.381Z,2.69
2019-01-28T01:51:36.831Z,2.64
2019-01-28T01:54:06.505Z,2.65
2019-01-28T01:56:36.033Z,2.67
2019-01-28T01:59:06.313Z,2.68
2019-01-28T02:01:35.708Z,2.69
2019-01-28T02:04:05.161Z,2.73
2019-01-28T02:06:34.734Z,2.70
2019-01-28T02:09:05.993Z,2.73
2019-01-28T02:11:35.500Z,2.74
2019-01-28T02:14:05.471Z,2.76
2019-01-28T02:16:34.923Z,2.74
2019-01-28T02:19:04.403Z,2.71
2019-01-28T02:21:33.884Z,2.72
2019-01-28T02:24:03.358Z,2.73
2019-01-28T02:26:32.930Z,2.71
2019-01-28T02:29:02.325Z,2.72
2019-01-28T02:31:31.922Z,2.76
2019-01-28T02:34:01.602Z,2.75
2019-01-28T02:36:31.032Z,2.72
2019-01-28T02:39:00.435Z,2.71
2019-01-28T02:41:30.126Z,2.71
2019-01-28T02:43:59.623Z,2.79
2019-01-28T02:46:29.011Z,2.84
2019-01-28T02:48:58.522Z,2.89
2019-01-28T02:51:27.899Z,2.93
2019-01-28T02:53:57.287Z,2.92
2019-01-28T02:56:26.807Z,2.90
2019-01-28T02:58:56.343Z,2.94
2019-01-28T03:01:25.838Z,2.98
2019-01-28T03:03:55.283Z,2.97
2019-01-28T03:06:24.881Z,3.00
2019-01-28T03:08:54.469Z,3.00
2019-01-28T03:11:23.883Z,3.08
2019-01-28T03:13:53.271Z,3.11
2019-01-28T03:16:22.755Z,3.11
2019-01-28T03:18:52.259Z,3.12
2019-01-28T03:21:21.655Z,3.12
2019-01-28T03:23:51.057Z,3.16
2019-01-28T03:26:20.744Z,3.21
2019-01-28T03:28:50.133Z,3.24
2019-01-28T03:31:19.713Z,3.22
2019-01-28T03:33:49.218Z,3.24
2019-01-28T03:36:18.643Z,3.23
2019-01-28T03:38:48.126Z,3.26
2019-01-28T03:41:17.886Z,3.29
2019-01-28T03:43:47.353Z,3.25
2019-01-28T03:46:16.855Z,3.26
2019-01-28T03:48:46.397Z,3.27
2019-01-28T03:51:15.877Z,3.33
2019-01-28T03:53:45.436Z,3.37
2019-01-28T03:56:14.875Z,3.36
2019-01-28T03:58:44.385Z,3.33
2019-01-28T04:01:13.878Z,3.37
2019-01-28T04:03:43.463Z,3.44
2019-01-28T04:06:12.939Z,3.44
2019-01-28T04:08:42.341Z,3.45
2019-01-28T04:11:11.900Z,3.45
2019-01-28T04:13:41.395Z,3.48
2019-01-28T04:16:10.774Z,3.44
2019-01-28T04:18:40.218Z,3.39
2019-01-28T04:21:09.762Z,3.41
2019-01-28T04:23:39.282Z,3.38
2019-01-28T04:26:08.873Z,3.40
2019-01-28T04:28:38.289Z,3.43
2019-01-28T04:31:07.790Z,3.47
2019-01-28T04:33:37.318Z,3.49
2019-01-28T04:36:06.902Z,3.46
2019-01-28T04:38:36.301Z,3.51
2019-01-28T04:41:05.870Z,3.45
2019-01-28T04:43:35.387Z,3.42
2019-01-28T04:46:04.812Z,3.45
2019-01-28T04:48:34.294Z,3.53
2019-01-28T04:51:03.858Z,3.53
2019-01-28T04:53:33.281Z,3.55
2019-01-28T04:56:02.761Z,3.55
2019-01-28T04:58:32.264Z,3.54
2019-01-28T05:01:01.656Z,3.44
2019-01-28T05:03:31.055Z,3.38
2019-01-28T05:06:00.564Z,3.36
2019-01-28T05:08:30.045Z,3.38
2019-01-28T05:10:59.416Z,3.43
2019-01-28T05:13:29.077Z,3.55
2019-01-28T05:15:58.555Z,3.61
2019-01-28T05:18:28.056Z,3.66
2019-01-28T05:20:57.561Z,3.67
2019-01-28T05:23:27.024Z,3.65
2019-01-28T05:25:56.481Z,3.69
2019-01-28T05:28:25.982Z,3.66
2019-01-28T05:30:55.468Z,3.69
2019-01-28T05:33:24.951Z,3.71
2019-01-28T05:35:54.386Z,3.75
2019-01-28T05:38:23.803Z,3.66
2019-01-28T05:40:53.348Z,3.57
2019-01-28T05:43:22.854Z,3.62
2019-01-28T05:45:52.234Z,3.67
2019-01-28T05:48:21.660Z,3.76
2019-01-28T05:50:51.175Z,3.82
2019-01-28T05:53:20.636Z,3.87
2019-01-28T05:55:50.011Z,3.94
2019-01-28T05:58:19.441Z,3.96
2019-01-28T06:00:48.922Z,4.01
2019-01-28T06:03:18.391Z,3.97
2019-01-28T06:05:47.961Z,3.93
2019-01-28T06:08:17.436Z,3.90
2019-01-28T06:10:46.949Z,3.89
2019-01-28T06:13:16.387Z,3.90
2019-01-28T06:15:45.889Z,3.90
2019-01-28T06:18:15.441Z,3.87
2019-01-28T06:20:44.875Z,3.88
2019-01-28T06:23:14.275Z,3.91
2019-01-28T06:25:43.869Z,3.93
2019-01-28T06:28:13.625Z,3.98
2019-01-28T06:30:43.017Z,4.03
2019-01-28T06:33:12.403Z,4.05
2019-01-28T06:35:43.573Z,4.09
2019-01-28T06:38:13.142Z,4.13
2019-01-28T06:40:42.528Z,4.18
2019-01-28T06:43:12.190Z,4.19
2019-01-28T06:45:41.670Z,4.24
2019-01-28T06:48:11.090Z,4.20
2019-01-28T06:50:40.611Z,4.17
2019-01-28T06:53:10.079Z,4.15
2019-01-28T06:55:39.475Z,4.13
2019-01-28T06:58:08.981Z,4.17
2019-01-28T07:00:38.560Z,4.25
2019-01-28T07:03:09.533Z,4.36
2019-01-28T07:05:39.311Z,4.46
2019-01-28T07:08:08.694Z,4.54
2019-01-28T07:10:38.166Z,4.59
2019-01-28T07:13:13.552Z,4.65
2019-01-28T07:15:42.960Z,4.70
2019-01-28T07:18:12.704Z,4.77
2019-01-28T07:20:42.276Z,4.75
2019-01-28T07:23:11.737Z,4.80
2019-01-28T07:25:41.136Z,4.76
2019-01-28T07:28:11.018Z,4.85
2019-01-28T07:30:40.403Z,4.88
2019-01-28T07:33:09.833Z,4.97
2019-01-28T07:35:39.527Z,4.94
2019-01-28T07:38:09.042Z,4.97
2019-01-28T07:40:38.415Z,4.93
2019-01-28T07:43:07.879Z,5.07
2019-01-28T07:45:44.851Z,5.18
2019-01-28T07:48:10.065Z,5.24
2019-01-28T07:50:39.452Z,5.51
2019-01-28T07:53:09.106Z,5.25
2019-01-28T07:55:38.588Z,5.14
2019-01-28T07:58:08.178Z,5.50
2019-01-28T08:00:48.669Z,5.75
2019-01-28T08:03:35.820Z,5.73
2019-01-28T08:06:09.317Z,5.99
2019-01-28T08:08:39.666Z,6.05
2019-01-28T08:11:09.151Z,5.98
2019-01-28T08:13:38.651Z,6.11
2019-01-28T08:16:08.026Z,6.20
2019-01-28T08:18:37.883Z,6.13
2019-01-28T08:21:07.401Z,5.98
2019-01-28T08:23:37.021Z,6.17
2019-01-28T08:26:06.799Z,6.30
2019-01-28T08:28:36.975Z,6.30
2019-01-28T08:31:06.948Z,6.44
2019-01-28T08:33:36.564Z,6.41
2019-01-28T08:36:06.317Z,6.47
2019-01-28T08:38:35.712Z,6.35
2019-01-28T08:41:05.319Z,6.53
2019-01-28T08:43:34.846Z,6.62
2019-01-28T08:46:04.246Z,6.66
2019-01-28T08:48:33.893Z,6.48
2019-01-28T08:51:03.565Z,5.88
2019-01-28T08:53:33.123Z,6.23
2019-01-28T08:56:02.757Z,6.65
2019-01-28T08:58:32.345Z,6.85
2019-01-28T09:01:01.715Z,7.03
2019-01-28T09:03:31.111Z,7.14
2019-01-28T09:06:00.734Z,7.12
2019-01-28T09:08:30.335Z,6.93
2019-01-28T09:11:00.934Z,7.03
2019-01-28T09:13:30.596Z,6.95
2019-01-28T09:16:00.189Z,6.88
2019-01-28T09:18:29.659Z,6.78
2019-01-28T09:20:59.136Z,6.62
2019-01-28T09:23:28.640Z,6.71
2019-01-28T09:25:58.118Z,6.86
2019-01-28T09:28:27.737Z,7.13
2019-01-28T09:30:57.117Z,7.20
2019-01-28T09:33:26.505Z,7.36
2019-01-28T09:35:56.029Z,7.44
2019-01-28T09:38:25.579Z,7.43
2019-01-28T09:40:55.113Z,7.47
2019-01-28T09:43:24.581Z,7.59
2019-01-28T09:45:54.365Z,7.72
2019-01-28T09:48:23.923Z,7.60
2019-01-28T09:50:53.292Z,7.61
2019-01-28T09:53:22.702Z,7.68
2019-01-28T09:55:52.436Z,7.70
2019-01-28T09:58:22.020Z,7.69
2019-01-28T10:00:52.389Z,7.52
2019-01-28T10:03:21.826Z,7.47
2019-01-28T10:05:51.286Z,7.60
2019-01-28T10:08:20.733Z,7.69
2019-01-28T10:10:50.261Z,7.69
2019-01-28T10:13:19.821Z,7.54
2019-01-28T10:15:49.209Z,7.51
2019-01-28T10:18:18.800Z,7.40
2019-01-28T10:20:49.710Z,7.28
2019-01-28T10:23:19.260Z,7.26
2019-01-28T10:25:49.519Z,7.28
2019-01-28T10:28:18.971Z,7.15
2019-01-28T10:30:48.907Z,7.04
2019-01-28T10:33:18.625Z,7.13
2019-01-28T10:35:48.097Z,7.17
2019-01-28T10:38:17.821Z,7.16
2019-01-28T10:40:49.106Z,7.08
2019-01-28T10:43:18.599Z,7.08
2019-01-28T10:45:48.162Z,7.06
2019-01-28T10:48:17.774Z,7.08
2019-01-28T10:50:47.265Z,7.09
2019-01-28T10:53:16.806Z,7.08
2019-01-28T10:55:46.902Z,7.08
2019-01-28T10:58:16.362Z,7.05
2019-01-28T11:00:50.827Z,7.01
2019-01-28T11:03:23.064Z,7.05
2019-01-28T11:05:53.018Z,6.95
2019-01-28T11:08:22.532Z,6.83
2019-01-28T11:10:51.979Z,6.83
2019-01-28T11:13:21.459Z,6.87
2019-01-28T11:15:51.101Z,6.78
2019-01-28T11:18:26.275Z,6.86
2019-01-28T11:20:56.099Z,6.79
2019-01-28T11:23:25.560Z,6.76
2019-01-28T11:25:55.250Z,6.78
2019-01-28T11:28:24.659Z,6.84
2019-01-28T11:30:59.314Z,6.86
2019-01-28T11:33:28.946Z,6.93
2019-01-28T11:36:05.113Z,6.90
2019-01-28T11:38:29.953Z,6.87
2019-01-28T11:40:59.560Z,6.85
2019-01-28T11:43:29.331Z,6.80
2019-01-28T11:46:05.002Z,6.94
2019-01-28T11:48:35.345Z,6.91
2019-01-28T11:51:05.756Z,7.00
2019-01-28T11:53:39.722Z,7.07
2019-01-28T11:56:09.134Z,7.09
2019-01-28T11:58:38.620Z,7.22
2019-01-28T12:01:42.962Z,7.22
2019-01-28T12:04:12.474Z,7.26
2019-01-28T12:06:41.894Z,7.40
2019-01-28T12:09:11.908Z,7.44
2019-01-28T12:11:41.416Z,7.42
2019-01-28T12:14:10.897Z,7.40
2019-01-28T12:16:40.359Z,7.34
2019-01-28T12:19:14.381Z,7.18
2019-01-28T12:21:40.993Z,6.82
2019-01-28T12:24:10.517Z,7.20
2019-01-28T12:26:39.907Z,7.39
2019-01-28T12:29:09.416Z,7.54
2019-01-28T12:31:39.206Z,7.58
2019-01-28T12:34:08.779Z,7.34
2019-01-28T12:36:38.183Z,7.49
2019-01-28T12:39:11.558Z,7.46
2019-01-28T12:41:41.326Z,7.50
2019-01-28T12:44:10.800Z,7.46
2019-01-28T12:46:40.330Z,7.69
2019-01-28T12:49:09.834Z,7.80
2019-01-28T12:51:39.333Z,7.84
2019-01-28T12:54:08.799Z,7.75
2019-01-28T12:56:38.305Z,7.74
2019-01-28T12:59:09.116Z,7.87
2019-01-28T13:01:38.917Z,7.87
2019-01-28T13:04:08.553Z,7.85
2019-01-28T13:06:38.045Z,7.77
2019-01-28T13:09:09.466Z,7.84
2019-01-28T13:11:39.039Z,7.66
2019-01-28T13:14:08.455Z,7.61
2019-01-28T13:16:38.147Z,7.72
2019-01-28T13:19:07.610Z,7.74
2019-01-28T13:21:37.012Z,7.74
2019-01-28T13:24:06.564Z,7.70
2019-01-28T13:26:36.068Z,7.73
2019-01-28T13:29:06.072Z,7.76
2019-01-28T13:31:35.895Z,7.69
2019-01-28T13:34:05.765Z,7.65
2019-01-28T13:36:35.157Z,7.73
2019-01-28T13:39:06.136Z,7.70
2019-01-28T13:41:35.632Z,7.73
2019-01-28T13:44:05.226Z,7.73
2019-01-28T13:46:34.834Z,7.67
2019-01-28T13:49:04.322Z,7.60
2019-01-28T13:51:33.844Z,7.56
2019-01-28T13:54:03.392Z,7.54
2019-01-28T13:56:32.763Z,7.39
2019-01-28T13:59:02.185Z,7.46
2019-01-28T14:01:31.738Z,7.48
2019-01-28T14:04:01.212Z,7.35
2019-01-28T14:06:30.847Z,7.34
2019-01-28T14:09:00.418Z,7.39
2019-01-28T14:11:29.873Z,7.24
2019-01-28T14:13:59.305Z,7.32
2019-01-28T14:16:28.946Z,7.34
2019-01-28T14:18:58.454Z,7.33
2019-01-28T14:21:27.884Z,7.32
2019-01-28T14:23:57.340Z,7.31
2019-01-28T14:26:26.823Z,7.27
2019-01-28T14:28:56.495Z,7.20
2019-01-28T14:31:27.003Z,7.17
2019-01-28T14:33:56.512Z,7.13
2019-01-28T14:36:26.340Z,7.10
2019-01-28T14:38:55.837Z,7.05
2019-01-28T14:41:25.408Z,6.89
2019-01-28T14:43:54.940Z,6.93
2019-01-28T14:46:25.485Z,6.90
2019-01-28T14:48:55.085Z,6.87
2019-01-28T14:51:24.488Z,6.84
2019-01-28T14:53:54.171Z,6.81
2019-01-28T14:56:23.929Z,6.72
2019-01-28T14:58:53.664Z,6.62
2019-01-28T15:01:23.329Z,6.60
2019-01-28T15:03:52.950Z,6.54
2019-01-28T15:06:22.681Z,6.46
2019-01-28T15:08:52.455Z,6.44
2019-01-28T15:11:22.271Z,6.34
2019-01-28T15:13:51.877Z,6.28
2019-01-28T15:16:21.634Z,6.18
2019-01-28T15:18:51.275Z,6.08
2019-01-28T15:21:20.670Z,5.97
2019-01-28T15:23:50.384Z,5.93
2019-01-28T15:26:19.895Z,5.96
2019-01-28T15:28:50.100Z,5.85
2019-01-28T15:31:20.191Z,5.74
2019-01-28T15:33:49.990Z,5.60
2019-01-28T15:36:19.756Z,5.52
2019-01-28T15:38:49.639Z,5.39
2019-01-28T15:41:19.353Z,5.32
2019-01-28T15:43:48.981Z,5.25
2019-01-28T15:46:18.745Z,5.27
2019-01-28T15:48:48.367Z,5.23
2019-01-28T15:51:17.993Z,5.31
2019-01-28T15:53:47.861Z,5.47
2019-01-28T15:56:17.709Z,5.65
2019-01-28T15:58:47.349Z,5.60
2019-01-28T16:01:17.251Z,5.59
2019-01-28T16:03:46.884Z,5.50
2019-01-28T16:06:16.512Z,5.46
2019-01-28T16:08:46.189Z,5.36
2019-01-28T16:11:15.825Z,5.27
2019-01-28T16:13:45.761Z,5.19
2019-01-28T16:16:15.646Z,5.15
2019-01-28T16:18:45.281Z,5.12
2019-01-28T16:21:15.184Z,5.11
2019-01-28T16:23:44.856Z,5.14
2019-01-28T16:26:14.469Z,5.12
2019-01-28T16:28:44.113Z,5.15
2019-01-28T16:31:13.768Z,5.20
2019-01-28T16:33:43.422Z,5.32
2019-01-28T16:36:13.552Z,5.31
2019-01-28T16:38:43.219Z,5.30
2019-01-28T16:41:12.850Z,5.14
2019-01-28T16:43:42.543Z,5.01
2019-01-28T16:46:12.259Z,5.05
2019-01-28T16:48:41.891Z,5.13
2019-01-28T16:51:11.537Z,4.94
2019-01-28T16:53:41.208Z,4.87
2019-01-28T16:56:11.054Z,5.02
2019-01-28T16:58:40.780Z,4.92
2019-01-28T17:01:10.572Z,4.92
2019-01-28T17:03:40.225Z,5.03
2019-01-28T17:06:10.099Z,4.89
2019-01-28T17:08:39.763Z,4.86
2019-01-28T17:11:09.394Z,4.92
2019-01-28T17:13:39.023Z,4.81
2019-01-28T17:16:08.720Z,4.78
2019-01-28T17:18:38.361Z,4.81
2019-01-28T17:21:08.105Z,4.70
2019-01-28T17:23:37.795Z,4.85
2019-01-28T17:26:07.534Z,4.89
2019-01-28T17:28:37.178Z,4.83
2019-01-28T17:31:07.721Z,5.02
2019-01-28T17:33:39.046Z,4.92
2019-01-28T17:36:08.979Z,4.91
2019-01-28T17:38:38.664Z,4.89
2019-01-28T17:41:08.401Z,4.83
2019-01-28T17:43:38.139Z,4.72
2019-01-28T17:46:08.119Z,4.76
2019-01-28T17:48:37.757Z,4.57
2019-01-28T17:51:07.925Z,4.52
2019-01-28T17:53:37.801Z,4.62
2019-01-28T17:56:07.682Z,4.56
2019-01-28T17:58:37.905Z,4.48
2019-01-28T18:01:07.918Z,4.41
2019-01-28T18:03:37.605Z,4.31
2019-01-28T18:06:07.977Z,4.31
2019-01-28T18:08:37.987Z,4.36
2019-01-28T18:11:07.806Z,4.25
2019-01-28T18:13:37.430Z,4.18
2019-01-28T18:16:07.197Z,4.18
2019-01-28T18:18:36.842Z,4.19
2019-01-28T18:21:06.662Z,4.04
2019-01-28T18:23:50.660Z,4.07
2019-01-28T18:26:20.369Z,4.17
2019-01-28T18:28:49.981Z,4.08
2019-01-28T18:31:19.846Z,4.02
2019-01-28T18:33:49.570Z,3.98
2019-01-28T18:36:19.285Z,3.91
2019-01-28T18:38:48.943Z,3.98
2019-01-28T18:41:18.668Z,3.90
2019-01-28T18:43:48.389Z,3.96
2019-01-28T18:46:18.214Z,4.02
2019-01-28T18:48:47.958Z,4.05
2019-01-28T18:51:17.754Z,4.01
2019-01-28T18:53:47.556Z,3.90
2019-01-28T18:56:17.520Z,3.88
2019-01-28T18:58:47.694Z,3.80
2019-01-28T19:01:17.669Z,3.75
2019-01-28T19:03:47.342Z,3.69
2019-01-28T19:06:35.963Z,3.77
2019-01-28T19:09:29.867Z,3.69
2019-01-28T19:12:09.870Z,3.69
2019-01-28T19:14:46.996Z,3.75
2019-01-28T19:17:41.683Z,3.66
2019-01-28T19:20:41.535Z,3.67
2019-01-28T19:23:11.261Z,3.63
2019-01-28T19:25:41.467Z,3.68
2019-01-28T19:28:11.157Z,3.63
2019-01-28T19:30:40.953Z,3.77
2019-01-28T19:33:10.924Z,3.66
2019-01-28T19:35:41.940Z,3.67
2019-01-28T19:38:13.156Z,3.75
2019-01-28T19:40:42.832Z,3.77
2019-01-28T19:43:12.560Z,3.73
2019-01-28T19:45:42.511Z,3.68
2019-01-28T19:48:12.435Z,3.68
2019-01-28T19:50:42.409Z,3.62
2019-01-28T19:53:12.297Z,3.72
2019-01-28T19:55:42.094Z,3.69
2019-01-28T19:58:11.826Z,3.68
2019-01-28T20:00:41.824Z,3.72
2019-01-28T20:03:13.903Z,3.82
2019-01-28T20:05:43.767Z,3.69
2019-01-28T20:08:15.065Z,3.69
2019-01-28T20:10:46.348Z,3.67
2019-01-28T20:13:16.617Z,3.89
2019-01-28T20:15:46.436Z,3.93
2019-01-28T20:18:16.085Z,3.89
2019-01-28T20:20:46.210Z,3.86
2019-01-28T20:23:16.205Z,3.81
2019-01-28T20:25:46.052Z,3.83
2019-01-28T20:28:15.726Z,3.83
2019-01-28T20:30:45.496Z,3.79
2019-01-28T20:33:18.062Z,3.72
2019-01-28T20:35:47.845Z,3.81
2019-01-28T20:38:17.542Z,3.83
2019-01-28T20:40:47.290Z,3.85
2019-01-28T20:43:23.960Z,3.68
2019-01-28T20:45:48.466Z,3.59
2019-01-28T20:48:18.125Z,3.55
2019-01-28T20:50:47.741Z,3.57
2019-01-28T20:53:17.465Z,3.60
2019-01-28T20:55:47.122Z,3.59
2019-01-28T20:58:16.916Z,3.59
2019-01-28T21:00:46.610Z,3.55
2019-01-28T21:03:16.283Z,3.58
2019-01-28T21:05:46.020Z,3.48
2019-01-28T21:08:15.714Z,3.32
2019-01-28T21:10:45.302Z,3.34
2019-01-28T21:13:15.067Z,3.39
2019-01-28T21:15:44.743Z,3.34
2019-01-28T21:18:14.558Z,3.25
2019-01-28T21:20:44.201Z,3.30
2019-01-28T21:23:14.034Z,3.45
2019-01-28T21:25:43.637Z,3.45
2019-01-28T21:28:13.296Z,3.32
2019-01-28T21:30:43.150Z,3.26
2019-01-28T21:33:12.772Z,3.18
2019-01-28T21:36:01.435Z,3.12
2019-01-28T21:38:35.645Z,3.14
2019-01-28T21:41:05.499Z,3.15
2019-01-28T21:43:35.134Z,3.04
2019-01-28T21:46:05.328Z,3.13
2019-01-28T21:48:35.869Z,3.17
2019-01-28T21:51:05.713Z,3.18
2019-01-28T21:53:37.698Z,3.21
2019-01-28T21:56:07.774Z,3.03
2019-01-28T21:58:37.810Z,3.12
2019-01-28T22:01:08.790Z,3.18
2019-01-28T22:03:38.416Z,3.12
2019-01-28T22:06:08.052Z,3.10
2019-01-28T22:08:37.869Z,3.10
2019-01-28T22:11:07.606Z,3.04
2019-01-28T22:13:37.214Z,3.06
2019-01-28T22:16:07.109Z,3.05
2019-01-28T22:18:36.722Z,3.09
2019-01-28T22:21:13.436Z,3.19
2019-01-28T22:23:43.630Z,3.11
2019-01-28T22:26:13.267Z,3.08
2019-01-28T22:28:42.939Z,3.03
2019-01-28T22:31:12.761Z,3.13
2019-01-28T22:33:42.394Z,3.09
2019-01-28T22:36:12.321Z,2.99
2019-01-28T22:38:42.701Z,3.03
2019-01-28T22:41:12.637Z,2.96
2019-01-28T22:43:42.289Z,3.09
2019-01-28T22:46:11.915Z,3.19
2019-01-28T22:48:41.606Z,3.14
2019-01-28T22:51:11.713Z,3.07
2019-01-28T22:53:41.644Z,3.05
2019-01-28T22:56:11.385Z,3.03
2019-01-28T22:58:41.045Z,2.94
2019-01-28T23:01:25.968Z,2.87
2019-01-28T23:03:55.652Z,2.99
2019-01-28T23:06:25.365Z,2.91
2019-01-28T23:08:55.089Z,3.00
2019-01-28T23:11:24.743Z,3.03
2019-01-28T23:13:54.364Z,3.02
2019-01-28T23:16:24.104Z,3.00
2019-01-28T23:18:53.913Z,3.02
2019-01-28T23:21:23.540Z,3.05
2019-01-28T23:23:53.260Z,2.82
2019-01-28T23:26:22.939Z,2.86
2019-01-28T23:28:52.669Z,3.06
2019-01-28T23:31:22.404Z,3.08
2019-01-28T23:33:54.548Z,3.02
2019-01-28T23:36:24.167Z,3.08
2019-01-28T23:38:53.794Z,2.95
2019-01-28T23:41:23.503Z,2.91
2019-01-28T23:43:53.232Z,2.97
2019-01-28T23:46:22.945Z,2.79
2019-01-28T23:48:52.606Z,2.83
2019-01-28T23:51:22.225Z,2.91
2019-01-28T23:53:51.831Z,2.74
2019-01-28T23:56:21.488Z,2.72
2019-01-28T23:58:51.112Z,2.92
